Time;durP1;ratioP1;P1;durP2;ratioP2;P2;SDS_P1;SDS_P2;PMS_P1;PMS_P2;Temp;Humidity;BMP_temperature;BMP_pressure;BME280_temperature;BME280_humidity;BME280_pressure;Samples;Min_cycle;Max_cycle;Signal;HPM_P1;HPM_P2
2021/04/13 00:01:37;;;;;;;;;;;-0.10;99.90;;;;;;10517008;28;20444;-71
2021/04/13 00:06:42;;;;;;;;;;;-0.20;99.90;;;;;;10494580;28;19920;-71
2021/04/13 00:11:47;;;;;;;;;;;-0.20;99.90;;;;;;10491637;28;19955;-71
2021/04/13 00:16:49;;;;;;;;;;;-0.30;99.90;;;;;;10489952;28;20051;-71
2021/04/13 00:21:52;;;;;;;;;;;-0.30;99.90;;;;;;10490646;28;19936;-71
2021/04/13 00:26:57;;;;;;;;;;;-0.20;99.90;;;;;;10489793;28;19931;-71
2021/04/13 00:32:00;;;;;;;;;;;-0.20;99.90;;;;;;10489051;28;20345;-71
2021/04/13 00:37:21;;;;;;;;;;;-0.20;99.90;;;;;;10488798;28;19924;-71
2021/04/13 00:42:24;;;;;;;;;;;-0.30;99.90;;;;;;10488831;28;20345;-71
2021/04/13 00:47:32;;;;;;;;;;;-0.30;99.90;;;;;;10489082;28;20447;-70
2021/04/13 00:52:39;;;;;;;;;;;-0.40;99.90;;;;;;10487403;28;19920;-70
2021/04/13 00:57:49;;;;;;;;;;;-0.40;99.90;;;;;;10487513;28;19920;-71
2021/04/13 01:02:55;;;;;;;;;;;-0.40;99.90;;;;;;10488910;28;20440;-71
2021/04/13 01:07:57;;;;;;;;;;;-0.40;99.90;;;;;;10487628;28;20011;-71
2021/04/13 01:13:06;;;;;;;;;;;-0.50;99.90;;;;;;10487210;28;20026;-71
2021/04/13 01:18:12;;;;;;;;;;;-0.50;99.90;;;;;;10488169;28;19924;-71
2021/04/13 01:23:33;;;;;;;;;;;-0.50;99.90;;;;;;10487236;28;19943;-70
2021/04/13 01:28:36;;;;;;;;;;;-0.60;99.90;;;;;;10476457;28;20364;-70
2021/04/13 01:33:52;;;;;;;;;;;-0.60;99.90;;;;;;10487864;28;19963;-70
2021/04/13 01:39:14;;;;;;;;;;;-0.60;99.90;;;;;;10486938;28;20400;-70
2021/04/13 01:44:17;;;;;;;;;;;-0.70;99.90;;;;;;10487306;28;20001;-70
2021/04/13 01:49:19;;;;;;;;;;;-0.80;99.90;;;;;;10488249;28;19920;-70
2021/04/13 01:54:22;;;;;;;;;;;-0.80;99.90;;;;;;10487334;28;20015;-70
2021/04/13 01:59:29;;;;;;;;;;;-0.90;99.90;;;;;;10486886;28;19927;-70
2021/04/13 02:04:36;;;;;;;;;;;-1.00;99.90;;;;;;10494584;28;20053;-70
2021/04/13 02:09:45;;;;;;;;;;;-1.00;99.90;;;;;;10495040;28;20628;-71
2021/04/13 02:14:52;;;;;;;;;;;-1.00;99.90;;;;;;10493970;28;20015;-70
2021/04/13 02:19:54;;;;;;;;;;;-1.00;99.90;;;;;;10495095;28;19998;-70
2021/04/13 02:25:00;;;;;;;;;;;-1.00;99.90;;;;;;10494878;28;20269;-70
2021/04/13 02:30:05;;;;;;;;;;;-1.00;99.90;;;;;;10494227;28;19924;-71
2021/04/13 02:35:13;;;;;;;;;;;-1.10;99.90;;;;;;10494300;28;20015;-71
2021/04/13 02:40:15;;;;;;;;;;;-1.10;99.90;;;;;;10494548;28;19967;-70
2021/04/13 02:45:25;;;;;;;;;;;-1.10;99.90;;;;;;10492508;28;20483;-70
2021/04/13 02:50:27;;;;;;;;;;;-1.10;99.90;;;;;;10493944;28;20003;-70
2021/04/13 02:55:31;;;;;;;;;;;-1.20;99.90;;;;;;10494170;28;20019;-71
2021/04/13 03:00:35;;;;;;;;;;;-1.20;99.90;;;;;;10493550;28;19959;-71
2021/04/13 03:05:37;;;;;;;;;;;-1.30;99.90;;;;;;10488770;28;19924;-71
2021/04/13 03:10:40;;;;;;;;;;;-1.30;99.90;;;;;;10487667;28;20376;-70
2021/04/13 03:15:42;;;;;;;;;;;-1.30;99.90;;;;;;10484715;28;19960;-70
2021/04/13 03:20:46;;;;;;;;;;;-1.40;99.90;;;;;;10486808;28;19954;-70
2021/04/13 03:25:50;;;;;;;;;;;-1.40;99.90;;;;;;10486270;28;19967;-70
2021/04/13 03:30:53;;;;;;;;;;;-1.50;99.90;;;;;;10486235;28;20022;-70
2021/04/13 03:36:15;;;;;;;;;;;-1.50;99.90;;;;;;10486385;28;20110;-70
2021/04/13 03:41:18;;;;;;;;;;;-1.50;99.90;;;;;;10485899;28;19924;-71
2021/04/13 03:46:19;;;;;;;;;;;-1.50;99.90;;;;;;10486041;28;20013;-71
2021/04/13 03:51:27;;;;;;;;;;;-1.50;99.90;;;;;;10485107;28;19920;-71
2021/04/13 03:56:39;;;;;;;;;;;-1.50;99.90;;;;;;10491437;28;19928;-71
2021/04/13 04:01:42;;;;;;;;;;;-1.60;99.90;;;;;;10492960;28;19927;-70
2021/04/13 04:06:51;;;;;;;;;;;-1.60;99.90;;;;;;10493314;28;19920;-71
2021/04/13 04:11:52;;;;;;;;;;;-1.60;99.90;;;;;;10491994;28;20365;-70
2021/04/13 04:17:05;;;;;;;;;;;-1.60;99.90;;;;;;10492074;28;19973;-70
2021/04/13 04:22:08;;;;;;;;;;;-1.60;99.90;;;;;;10492092;28;20377;-71
2021/04/13 04:27:15;;;;;;;;;;;-1.60;99.90;;;;;;10492380;28;19960;-71
2021/04/13 04:32:40;;;;;;;;;;;-1.60;99.90;;;;;;10491267;28;19963;-71
2021/04/13 04:37:50;;;;;;;;;;;-1.60;99.90;;;;;;10486099;28;20031;-71
2021/04/13 04:42:52;;;;;;;;;;;-1.60;99.90;;;;;;10487286;28;20382;-71
2021/04/13 04:47:53;;;;;;;;;;;-1.60;99.90;;;;;;10489544;28;19920;-70
2021/04/13 04:52:54;;;;;;;;;;;-1.70;99.90;;;;;;10491140;28;19982;-71
2021/04/13 04:57:55;;;;;;;;;;;-1.70;99.90;;;;;;10490720;28;20352;-71
2021/04/13 05:02:57;;;;;;;;;;;-1.60;99.90;;;;;;10490266;28;20015;-70
2021/04/13 05:07:58;;;;;;;;;;;-1.50;99.90;;;;;;10489428;28;19927;-71
2021/04/13 05:13:00;;;;;;;;;;;-1.40;99.90;;;;;;10489794;28;20003;-71
2021/04/13 05:18:01;;;;;;;;;;;-1.30;99.90;;;;;;10489805;28;19976;-71
2021/04/13 05:23:03;;;;;;;;;;;-1.10;99.90;;;;;;10488944;28;20435;-71
2021/04/13 05:28:05;;;;;;;;;;;-1.30;99.90;;;;;;10488922;28;19936;-71
2021/04/13 05:33:06;;;;;;;;;;;-1.20;99.90;;;;;;10489372;28;19931;-71
2021/04/13 05:38:16;;;;;;;;;;;-1.00;99.90;;;;;;10487102;28;20305;-71
2021/04/13 05:43:17;;;;;;;;;;;-0.70;99.90;;;;;;10487726;28;20030;-71
2021/04/13 05:48:20;;;;;;;;;;;-0.80;99.90;;;;;;10482189;28;19920;-71
2021/04/13 05:53:21;;;;;;;;;;;-0.60;99.90;;;;;;10487077;28;19927;-71
2021/04/13 05:58:33;;;;;;;;;;;-0.30;99.90;;;;;;10487688;28;19963;-71
2021/04/13 06:03:35;;;;;;;;;;;-0.10;99.90;;;;;;10480540;28;20011;-71
2021/04/13 06:08:36;;;;;;;;;;;-0.20;99.90;;;;;;10482583;28;20457;-71
2021/04/13 06:13:38;;;;;;;;;;;0.10;99.90;;;;;;10486181;28;20015;-71
2021/04/13 06:18:39;;;;;;;;;;;0.20;99.90;;;;;;10486953;28;20019;-71
2021/04/13 06:23:43;;;;;;;;;;;0.40;99.90;;;;;;10486160;28;19927;-71
2021/04/13 06:28:44;;;;;;;;;;;0.70;99.90;;;;;;10486268;28;20007;-71
2021/04/13 06:33:46;;;;;;;;;;;0.70;99.90;;;;;;10482615;28;20038;-71
2021/04/13 06:38:47;;;;;;;;;;;0.90;99.90;;;;;;10485339;28;19999;-71
2021/04/13 06:44:02;;;;;;;;;;;1.10;99.90;;;;;;10476475;28;20055;-71
2021/04/13 06:49:03;;;;;;;;;;;1.50;99.90;;;;;;10485381;28;19931;-71
2021/04/13 06:54:05;;;;;;;;;;;1.60;99.90;;;;;;10483381;28;19973;-71
2021/04/13 06:59:09;;;;;;;;;;;1.50;99.90;;;;;;10468055;28;19974;-71
2021/04/13 07:04:17;;;;;;;;;;;1.50;99.90;;;;;;10462944;28;20343;-71
2021/04/13 07:09:25;;;;;;;;;;;1.60;99.90;;;;;;10460414;28;19960;-71
2021/04/13 07:14:32;;;;;;;;;;;1.50;99.90;;;;;;10486240;28;20088;-71
2021/04/13 07:19:34;;;;;;;;;;;1.50;99.90;;;;;;10471608;28;19920;-72
2021/04/13 07:24:51;;;;;;;;;;;1.70;99.90;;;;;;10485844;28;20365;-71
2021/04/13 07:29:56;;;;;;;;;;;2.00;99.90;;;;;;10482481;28;19924;-71
2021/04/13 07:34:58;;;;;;;;;;;2.40;99.90;;;;;;10498268;28;19974;-71
2021/04/13 07:40:01;;;;;;;;;;;3.00;99.90;;;;;;10468680;28;19966;-71
2021/04/13 07:45:34;;;;;;;;;;;3.40;99.90;;;;;;10467557;28;20012;-72
2021/04/13 07:50:57;;;;;;;;;;;4.00;99.90;;;;;;10480291;28;19920;-71
2021/04/13 07:56:06;;;;;;;;;;;4.50;99.90;;;;;;10464232;28;19951;-72
2021/04/13 08:01:08;;;;;;;;;;;5.60;99.90;;;;;;10485161;28;19928;-72
2021/04/13 08:06:28;;;;;;;;;;;5.30;99.90;;;;;;10481154;28;19956;-72
2021/04/13 08:11:29;;;;;;;;;;;5.20;99.90;;;;;;10489847;28;19928;-72
2021/04/13 08:16:45;;;;;;;;;;;5.50;99.90;;;;;;10478899;28;19921;-71
2021/04/13 08:22:07;;;;;;;;;;;5.40;99.90;;;;;;10504915;28;19921;-71
2021/04/13 08:27:09;;;;;;;;;;;5.80;99.90;;;;;;10471487;28;20049;-72
2021/04/13 08:37:47;;;;;;;;;;;7.20;99.90;;;;;;10514330;28;20007;-72
2021/04/13 08:42:59;;;;;;;;;;;7.30;99.90;;;;;;10500861;28;20016;-73
2021/04/13 08:48:04;;;;;;;;;;;7.40;99.90;;;;;;10490323;28;19942;-72
2021/04/13 08:53:24;;;;;;;;;;;7.80;99.60;;;;;;10494824;28;20018;-60
2021/04/13 08:58:32;;;;;;;;;;;7.30;99.70;;;;;;10484348;28;20357;-61
2021/04/13 09:03:43;;;;;;;;;;;7.40;99.90;;;;;;10485437;28;19924;-60
2021/04/13 09:08:48;;;;;;;;;;;7.20;97.20;;;;;;10480117;28;20011;-60
2021/04/13 09:13:59;;;;;;;;;;;7.10;96.80;;;;;;10485034;28;19929;-59
2021/04/13 09:19:05;;;;;;;;;;;7.40;95.00;;;;;;10487241;28;19924;-60
2021/04/13 09:24:19;;;;;;;;;;;7.20;92.80;;;;;;10489517;28;19971;-60
2021/04/13 09:29:33;;;;;;;;;;;7.30;94.10;;;;;;10492199;28;20360;-60
2021/04/13 09:34:34;;;;;;;;;;;8.20;83.20;;;;;;10521928;28;20010;-60
2021/04/13 09:39:51;;;;;;;;;;;9.20;74.20;;;;;;10482889;28;19946;-60
2021/04/13 09:44:52;;;;;;;;;;;9.20;70.10;;;;;;10482935;28;20428;-60
2021/04/13 09:50:11;;;;;;;;;;;8.30;74.00;;;;;;10485214;28;19920;-60
2021/04/13 09:55:22;;;;;;;;;;;8.00;79.20;;;;;;10480507;28;20003;-61
2021/04/13 10:00:38;;;;;;;;;;;7.90;79.50;;;;;;10495165;28;19921;-60
2021/04/13 10:05:44;;;;;;;;;;;7.60;78.50;;;;;;10482858;28;20007;-60
2021/04/13 10:11:09;;;;;;;;;;;8.00;80.50;;;;;;10484084;28;20013;-61
2021/04/13 10:16:29;;;;;;;;;;;8.80;78.10;;;;;;10467090;28;19971;-60
2021/04/13 10:21:33;;;;;;;;;;;8.60;76.60;;;;;;10492192;28;20384;-60
2021/04/13 10:26:37;;;;;;;;;;;8.20;73.30;;;;;;10484686;28;20296;-60
2021/04/13 10:31:57;;;;;;;;;;;8.20;74.40;;;;;;10485526;28;20296;-60
2021/04/13 10:37:19;;;;;;;;;;;7.80;67.20;;;;;;10485984;28;19920;-60
2021/04/13 10:42:39;;;;;;;;;;;7.80;69.60;;;;;;10483601;28;19930;-60
2021/04/13 10:47:53;;;;;;;;;;;8.50;64.40;;;;;;10457354;28;19956;-60
2021/04/13 10:53:16;;;;;;;;;;;8.30;65.20;;;;;;10485093;28;19924;-60
2021/04/13 10:58:18;;;;;;;;;;;7.80;66.80;;;;;;10484490;28;19920;-60
2021/04/13 11:03:31;;;;;;;;;;;7.70;65.40;;;;;;10501028;28;19960;-60
2021/04/13 11:08:51;;;;;;;;;;;7.70;66.00;;;;;;10491339;28;19947;-60
2021/04/13 11:14:01;;;;;;;;;;;8.10;64.10;;;;;;10489378;28;20015;-61
2021/04/13 11:19:03;;;;;;;;;;;8.40;65.10;;;;;;10484183;28;19928;-60
2021/04/13 11:24:16;;;;;;;;;;;8.50;64.30;;;;;;10478062;28;20368;-60
2021/04/13 11:29:38;;;;;;;;;;;9.10;61.60;;;;;;10467309;28;19932;-60
2021/04/13 11:34:42;;;;;;;;;;;9.20;57.20;;;;;;10453016;28;20272;-60
2021/04/13 11:40:00;;;;;;;;;;;8.90;57.60;;;;;;10454165;28;20373;-60
2021/04/13 11:45:20;;;;;;;;;;;8.40;56.20;;;;;;10464213;28;20043;-60
2021/04/13 11:50:35;;;;;;;;;;;8.50;56.70;;;;;;10483005;28;19977;-60
2021/04/13 11:55:47;;;;;;;;;;;9.50;54.90;;;;;;10459578;28;20323;-60
2021/04/13 12:00:52;;;;;;;;;;;10.50;53.70;;;;;;10450170;28;19925;-60
2021/04/13 12:05:54;;;;;;;;;;;10.10;53.20;;;;;;10478748;28;20350;-60
2021/04/13 12:10:57;;;;;;;;;;;9.70;54.00;;;;;;10483099;28;20019;-60
2021/04/13 12:15:58;;;;;;;;;;;9.30;52.60;;;;;;10480959;28;19964;-60
2021/04/13 12:21:20;;;;;;;;;;;9.30;53.10;;;;;;10477869;28;19970;-60
2021/04/13 12:26:47;;;;;;;;;;;9.60;51.80;;;;;;10488377;28;19924;-60
2021/04/13 12:32:08;;;;;;;;;;;9.50;52.10;;;;;;10485557;28;19931;-60
2021/04/13 12:37:28;;;;;;;;;;;9.50;50.40;;;;;;10487681;28;19986;-60
2021/04/13 12:42:38;;;;;;;;;;;9.20;51.20;;;;;;10487496;28;20011;-60
2021/04/13 12:47:39;;;;;;;;;;;9.50;51.80;;;;;;10488450;28;19955;-60
2021/04/13 12:52:45;;;;;;;;;;;9.90;51.90;;;;;;10487066;28;20411;-60
2021/04/13 12:57:57;;;;;;;;;;;10.00;52.30;;;;;;10464158;28;661857;-60
2021/04/13 13:03:13;;;;;;;;;;;10.50;52.10;;;;;;10489298;28;20384;-60
2021/04/13 13:08:27;;;;;;;;;;;10.20;51.30;;;;;;10487795;28;20031;-60
2021/04/13 13:13:29;;;;;;;;;;;9.80;50.30;;;;;;10477932;28;20356;-60
2021/04/13 13:18:30;;;;;;;;;;;9.50;51.30;;;;;;10488670;28;20023;-60
2021/04/13 13:23:36;;;;;;;;;;;9.70;49.00;;;;;;10488134;28;20289;-60
2021/04/13 13:28:42;;;;;;;;;;;9.50;48.90;;;;;;10486922;28;20338;-60
2021/04/13 13:33:44;;;;;;;;;;;9.60;50.80;;;;;;10485536;28;19960;-60
2021/04/13 13:38:46;;;;;;;;;;;9.90;49.60;;;;;;10488771;28;20043;-60
2021/04/13 13:43:47;;;;;;;;;;;10.10;49.30;;;;;;10483957;28;20011;-60
2021/04/13 13:48:50;;;;;;;;;;;10.20;48.70;;;;;;10488862;28;19920;-60
2021/04/13 13:53:52;;;;;;;;;;;10.10;48.90;;;;;;10488150;28;19974;-60
2021/04/13 13:59:12;;;;;;;;;;;9.90;46.50;;;;;;10486173;28;19959;-60
2021/04/13 14:04:24;;;;;;;;;;;10.00;45.30;;;;;;10480996;28;19955;-61
2021/04/13 14:09:26;;;;;;;;;;;10.40;46.90;;;;;;10485953;28;19956;-61
2021/04/13 14:14:27;;;;;;;;;;;10.40;48.30;;;;;;10485259;28;19936;-60
2021/04/13 14:19:34;;;;;;;;;;;10.10;48.80;;;;;;10485560;28;20019;-61
2021/04/13 14:24:39;;;;;;;;;;;9.50;49.10;;;;;;10481872;28;20016;-61
2021/04/13 14:29:42;;;;;;;;;;;9.00;53.80;;;;;;10487441;28;20010;-60
2021/04/13 14:34:43;;;;;;;;;;;8.30;59.50;;;;;;10490657;28;20014;-61
2021/04/13 14:39:46;;;;;;;;;;;8.00;66.10;;;;;;10484613;28;20380;-61
2021/04/13 14:44:47;;;;;;;;;;;7.70;78.20;;;;;;10484627;28;20367;-61
2021/04/13 14:49:49;;;;;;;;;;;7.40;89.70;;;;;;10483569;28;20014;-61
2021/04/13 14:54:52;;;;;;;;;;;7.20;95.00;;;;;;10485435;28;19924;-60
2021/04/13 14:59:53;;;;;;;;;;;7.10;91.30;;;;;;10486670;28;19920;-60
2021/04/13 15:04:55;;;;;;;;;;;7.00;92.80;;;;;;10487806;28;19971;-60
